Time;durP1;ratioP1;P1;durP2;ratioP2;P2;SDS_P1;SDS_P2;PMS_P1;PMS_P2;Temp;Humidity;BMP_temperature;BMP_pressure;BME280_temperature;BME280_humidity;BME280_pressure;Samples;Min_cycle;Max_cycle;Signal;HPM_P1;HPM_P2
2022/10/27 00:01:33;;;;;;;19.65;3.38;;;;;;;;;;5044898;28;20427;-74
2022/10/27 00:03:59;;;;;;;21.33;5.07;;;;;;;;;;5010492;28;20029;-74
2022/10/27 00:06:26;;;;;;;9.82;3.20;;;;;;;;;;5033013;28;20462;-74
2022/10/27 00:08:52;;;;;;;10.88;3.25;;;;;;;;;;5028516;28;20028;-75
2022/10/27 00:11:18;;;;;;;17.77;3.53;;;;;;;;;;5029407;28;20026;-74
2022/10/27 00:13:44;;;;;;;11.70;3.28;;;;;;;;;;5013652;28;20105;-74
2022/10/27 00:16:14;;;;;;;12.77;3.25;;;;;;;;;;5026904;28;20058;-74
2022/10/27 00:18:40;;;;;;;8.38;3.60;;;;;;;;;;5021077;28;20122;-75
2022/10/27 00:21:14;;;;;;;15.60;5.10;;;;;;;;;;5032081;28;20115;-74
2022/10/27 00:23:40;;;;;;;12.57;5.40;;;;;;;;;;5022523;28;20025;-73
2022/10/27 00:26:10;;;;;;;15.68;4.40;;;;;;;;;;5020707;28;20021;-73
2022/10/27 00:28:38;;;;;;;21.33;4.80;;;;;;;;;;5027562;28;20103;-73
2022/10/27 00:31:06;;;;;;;19.52;6.07;;;;;;;;;;5020236;28;20033;-73
2022/10/27 00:33:32;;;;;;;13.52;4.55;;;;;;;;;;5023728;28;20044;-73
2022/10/27 00:36:05;;;;;;;15.18;4.45;;;;;;;;;;5025773;28;20021;-73
2022/10/27 00:38:31;;;;;;;14.38;5.25;;;;;;;;;;5023424;28;20025;-74
2022/10/27 00:40:57;;;;;;;18.25;5.07;;;;;;;;;;5031672;28;20120;-73
2022/10/27 00:43:26;;;;;;;15.43;5.00;;;;;;;;;;5018959;28;20263;-74
2022/10/27 00:45:53;;;;;;;18.77;5.28;;;;;;;;;;5035564;28;20090;-74
2022/10/27 00:48:19;;;;;;;17.85;5.55;;;;;;;;;;5029773;28;20474;-74
2022/10/27 00:50:46;;;;;;;14.23;5.40;;;;;;;;;;5024955;28;20123;-75
2022/10/27 00:53:15;;;;;;;18.02;8.15;;;;;;;;;;5015395;28;20041;-73
2022/10/27 00:55:42;;;;;;;12.85;5.55;;;;;;;;;;5025570;28;20033;-73
2022/10/27 00:58:10;;;;;;;19.60;6.47;;;;;;;;;;5014181;28;20042;-73
2022/10/27 01:00:38;;;;;;;24.20;7.72;;;;;;;;;;5023318;28;20060;-73
2022/10/27 01:03:04;;;;;;;18.73;8.35;;;;;;;;;;5029380;28;20034;-76
2022/10/27 01:05:30;;;;;;;11.00;6.75;;;;;;;;;;5029088;28;20509;-76
2022/10/27 01:08:00;;;;;;;19.80;7.55;;;;;;;;;;5032723;28;20096;-74
2022/10/27 01:10:27;;;;;;;19.70;7.57;;;;;;;;;;5029143;28;20532;-74
2022/10/27 01:12:54;;;;;;;16.77;7.80;;;;;;;;;;5025632;28;20470;-74
2022/10/27 01:15:21;;;;;;;20.27;8.52;;;;;;;;;;5031427;28;20025;-75
2022/10/27 01:18:07;;;;;;;18.48;7.90;;;;;;;;;;5022506;28;20108;-74
2022/10/27 01:20:33;;;;;;;18.73;7.95;;;;;;;;;;5032476;28;20122;-75
2022/10/27 01:23:02;;;;;;;16.33;7.18;;;;;;;;;;5031099;28;20389;-73
2022/10/27 01:25:51;;;;;;;18.60;8.43;;;;;;;;;;5026234;28;20091;-74
2022/10/27 01:28:39;;;;;;;19.30;8.00;;;;;;;;;;5030271;28;20029;-74
2022/10/27 01:31:05;;;;;;;15.60;7.28;;;;;;;;;;5024825;28;20021;-73
2022/10/27 01:33:38;;;;;;;19.75;8.45;;;;;;;;;;5035964;28;20025;-73
2022/10/27 01:36:04;;;;;;;;;;;;;;;;;;5021478;28;20052;-73
2022/10/27 01:38:39;;;;;;;18.92;8.27;;;;;;;;;;5030429;28;20349;-75
2022/10/27 01:41:08;;;;;;;14.90;8.52;;;;;;;;;;5004208;28;20063;-74
2022/10/27 01:43:35;;;;;;;18.23;9.55;;;;;;;;;;5041011;28;20033;-76
2022/10/27 01:46:03;;;;;;;19.67;8.45;;;;;;;;;;5031611;28;20029;-75
2022/10/27 01:48:32;;;;;;;24.73;9.05;;;;;;;;;;5024985;28;20030;-74
2022/10/27 01:50:58;;;;;;;21.60;9.15;;;;;;;;;;5029650;28;20107;-74
2022/10/27 01:53:24;;;;;;;15.57;9.45;;;;;;;;;;5023282;28;20088;-75
2022/10/27 01:56:05;;;;;;;27.58;10.65;;;;;;;;;;5042758;28;20036;-76
2022/10/27 01:58:37;;;;;;;19.88;9.43;;;;;;;;;;5023327;28;20164;-75
2022/10/27 02:01:22;;;;;;;20.05;9.75;;;;;;;;;;5039620;28;20565;-74
2022/10/27 02:04:08;;;;;;;20.67;10.38;;;;;;;;;;5024577;28;20505;-73
2022/10/27 02:06:37;;;;;;;19.98;11.35;;;;;;;;;;5026203;28;20104;-74
2022/10/27 02:09:08;;;;;;;20.08;11.52;;;;;;;;;;5024893;28;20030;-75
2022/10/27 02:11:35;;;;;;;20.92;10.52;;;;;;;;;;5016085;28;20127;-74
2022/10/27 02:14:01;;;;;;;24.00;11.18;;;;;;;;;;5023263;28;20033;-73
2022/10/27 02:16:29;;;;;;;22.45;12.40;;;;;;;;;;5034148;28;20062;-76
2022/10/27 02:19:05;;;;;;;19.50;10.75;;;;;;;;;;5042520;28;20049;-74
2022/10/27 02:21:32;;;;;;;22.60;11.82;;;;;;;;;;5031584;28;20026;-73
2022/10/27 02:23:59;;;;;;;18.00;9.80;;;;;;;;;;5029255;28;20354;-75
2022/10/27 02:26:25;;;;;;;22.00;8.98;;;;;;;;;;5025819;28;20449;-75
2022/10/27 02:29:03;;;;;;;21.83;9.55;;;;;;;;;;5029410;28;20048;-75
2022/10/27 02:31:35;;;;;;;18.38;9.85;;;;;;;;;;5014598;28;20458;-76
2022/10/27 02:34:01;;;;;;;16.52;9.65;;;;;;;;;;5043217;28;20021;-74
2022/10/27 02:36:27;;;;;;;33.78;20.17;;;;;;;;;;5029444;28;20033;-75
2022/10/27 02:38:53;;;;;;;22.92;11.68;;;;;;;;;;5023896;28;20037;-77
2022/10/27 02:41:19;;;;;;;36.42;23.73;;;;;;;;;;5021673;28;20099;-75
2022/10/27 02:43:45;;;;;;;24.70;14.80;;;;;;;;;;5029732;28;20040;-75
2022/10/27 02:46:12;;;;;;;20.90;12.35;;;;;;;;;;5025006;28;20379;-76
2022/10/27 02:48:38;;;;;;;21.40;11.88;;;;;;;;;;5030415;28;20033;-74
2022/10/27 02:51:04;;;;;;;22.20;10.82;;;;;;;;;;5028709;28;20025;-74
2022/10/27 02:53:30;;;;;;;25.02;12.02;;;;;;;;;;5024035;28;20025;-74
2022/10/27 02:55:56;;;;;;;25.52;11.15;;;;;;;;;;5026091;28;20021;-75
2022/10/27 02:58:22;;;;;;;25.75;11.65;;;;;;;;;;5024678;28;20024;-75
2022/10/27 03:00:48;;;;;;;22.05;10.82;;;;;;;;;;5028592;28;20141;-73
2022/10/27 03:03:14;;;;;;;24.52;10.88;;;;;;;;;;5024647;28;20029;-74
2022/10/27 03:05:40;;;;;;;23.55;11.18;;;;;;;;;;5012793;28;20075;-75
2022/10/27 03:08:06;;;;;;;24.73;11.38;;;;;;;;;;5025057;28;20500;-74
2022/10/27 03:10:32;;;;;;;27.45;12.38;;;;;;;;;;5016553;28;20041;-74
2022/10/27 03:12:58;;;;;;;32.88;11.60;;;;;;;;;;5022659;28;20087;-76
2022/10/27 03:15:24;;;;;;;19.33;10.65;;;;;;;;;;5029646;28;20417;-74
2022/10/27 03:17:50;;;;;;;20.48;11.15;;;;;;;;;;5011079;28;20037;-74
2022/10/27 03:20:17;;;;;;;30.60;12.75;;;;;;;;;;5024153;28;20316;-74
2022/10/27 03:22:43;;;;;;;25.83;11.70;;;;;;;;;;5023208;28;20449;-74
2022/10/27 03:25:14;;;;;;;21.60;12.50;;;;;;;;;;5044036;28;20029;-74
2022/10/27 03:27:41;;;;;;;22.88;10.45;;;;;;;;;;5026033;28;20112;-75
2022/10/27 03:30:07;;;;;;;20.83;12.38;;;;;;;;;;5032201;28;20061;-76
2022/10/27 03:32:34;;;;;;;23.98;10.65;;;;;;;;;;5034185;28;20033;-75
2022/10/27 03:35:00;;;;;;;20.73;10.88;;;;;;;;;;5031828;28;20041;-74
2022/10/27 03:37:26;;;;;;;23.55;11.30;;;;;;;;;;5031110;28;20037;-74
2022/10/27 03:39:52;;;;;;;27.88;11.18;;;;;;;;;;5031180;28;20037;-74
2022/10/27 03:42:18;;;;;;;20.95;10.40;;;;;;;;;;5028916;28;20045;-74
2022/10/27 03:44:44;;;;;;;21.35;10.30;;;;;;;;;;5024197;28;20048;-75
2022/10/27 03:47:10;;;;;;;18.27;10.05;;;;;;;;;;5032985;28;20468;-76
2022/10/27 03:49:36;;;;;;;17.17;9.25;;;;;;;;;;5014663;28;20091;-74
2022/10/27 03:52:02;;;;;;;24.17;10.30;;;;;;;;;;5028165;28;20021;-74
2022/10/27 03:54:31;;;;;;;23.92;10.93;;;;;;;;;;5031407;28;20727;-75
2022/10/27 03:56:57;;;;;;;26.30;12.38;;;;;;;;;;5026266;28;20034;-74
2022/10/27 03:59:23;;;;;;;24.15;11.10;;;;;;;;;;5020448;28;20186;-75
2022/10/27 04:01:50;;;;;;;25.20;11.60;;;;;;;;;;5027303;28;20048;-74
2022/10/27 04:04:16;;;;;;;19.92;10.18;;;;;;;;;;5031472;28;20030;-74
2022/10/27 04:06:42;;;;;;;22.25;10.70;;;;;;;;;;5032165;28;20030;-75
2022/10/27 04:09:08;;;;;;;27.60;11.20;;;;;;;;;;5026826;28;20425;-74
2022/10/27 04:11:34;;;;;;;18.33;9.07;;;;;;;;;;5032888;28;20017;-74
2022/10/27 04:14:00;;;;;;;20.90;10.52;;;;;;;;;;5029258;28;20041;-74
2022/10/27 04:16:26;;;;;;;20.25;10.70;;;;;;;;;;5039338;28;20049;-74
2022/10/27 04:18:52;;;;;;;19.38;9.38;;;;;;;;;;5032296;28;20408;-75
2022/10/27 04:21:18;;;;;;;20.08;9.23;;;;;;;;;;5032382;28;20496;-74
2022/10/27 04:23:45;;;;;;;19.50;10.30;;;;;;;;;;5022625;28;20030;-74
2022/10/27 04:26:11;;;;;;;28.60;10.63;;;;;;;;;;5029653;28;20091;-73
2022/10/27 04:28:37;;;;;;;21.42;10.88;;;;;;;;;;5028288;28;20029;-73
2022/10/27 04:31:03;;;;;;;23.08;10.05;;;;;;;;;;5036878;28;20116;-75
2022/10/27 04:33:29;;;;;;;17.50;10.13;;;;;;;;;;5033397;28;20036;-74
2022/10/27 04:35:56;;;;;;;21.25;11.40;;;;;;;;;;5030705;28;20482;-73
2022/10/27 04:38:22;;;;;;;20.52;10.00;;;;;;;;;;5031885;28;20033;-73
2022/10/27 04:40:48;;;;;;;19.17;9.85;;;;;;;;;;5029123;28;20037;-73
2022/10/27 04:43:14;;;;;;;17.90;10.05;;;;;;;;;;5025972;28;20029;-74
2022/10/27 04:45:41;;;;;;;18.10;9.85;;;;;;;;;;5013613;28;20029;-74
2022/10/27 04:48:07;;;;;;;22.55;12.02;;;;;;;;;;5029113;28;20374;-73
2022/10/27 04:50:33;;;;;;;21.90;11.40;;;;;;;;;;5044110;28;20037;-74
2022/10/27 04:53:00;;;;;;;25.13;11.82;;;;;;;;;;5035363;28;20025;-74
2022/10/27 04:55:27;;;;;;;26.70;11.40;;;;;;;;;;5025636;28;20063;-75
2022/10/27 04:57:53;;;;;;;24.15;10.93;;;;;;;;;;5031603;28;20117;-74
2022/10/27 05:00:20;;;;;;;25.92;11.63;;;;;;;;;;5029989;28;20692;-74
2022/10/27 05:02:51;;;;;;;24.38;11.98;;;;;;;;;;5027274;28;20374;-76
2022/10/27 05:05:17;;;;;;;21.60;12.07;;;;;;;;;;5025943;28;20076;-74
2022/10/27 05:07:50;;;;;;;23.15;11.88;;;;;;;;;;5025527;28;20029;-74
2022/10/27 05:10:16;;;;;;;23.02;10.85;;;;;;;;;;5031068;28;20425;-75
2022/10/27 05:12:42;;;;;;;24.90;12.23;;;;;;;;;;5033263;28;20128;-74
2022/10/27 05:15:08;;;;;;;26.52;11.57;;;;;;;;;;5028094;28;20053;-72
2022/10/27 05:17:35;;;;;;;25.35;13.13;;;;;;;;;;5024343;28;20641;-74
2022/10/27 05:20:01;;;;;;;25.98;12.00;;;;;;;;;;5034459;28;20056;-75
2022/10/27 05:22:27;;;;;;;22.10;11.25;;;;;;;;;;5033497;28;20482;-75
2022/10/27 05:24:53;;;;;;;21.15;12.02;;;;;;;;;;5030386;28;20026;-73
2022/10/27 05:27:19;;;;;;;24.02;12.00;;;;;;;;;;5017758;28;20512;-75
2022/10/27 05:29:46;;;;;;;23.35;12.43;;;;;;;;;;5029831;28;20032;-76
2022/10/27 05:32:12;;;;;;;27.30;10.88;;;;;;;;;;5024898;28;20033;-76
2022/10/27 05:34:38;;;;;;;24.73;12.30;;;;;;;;;;5002695;28;20060;-75
2022/10/27 05:37:04;;;;;;;26.58;11.73;;;;;;;;;;5025117;28;20317;-75
2022/10/27 05:39:30;;;;;;;16.67;10.75;;;;;;;;;;5029143;28;20041;-73
2022/10/27 05:41:56;;;;;;;20.35;11.43;;;;;;;;;;5028999;28;20038;-74
2022/10/27 05:44:22;;;;;;;24.48;11.90;;;;;;;;;;5029417;28;20030;-74
2022/10/27 05:46:48;;;;;;;27.45;13.98;;;;;;;;;;5006696;28;20033;-75
2022/10/27 05:49:14;;;;;;;23.63;15.02;;;;;;;;;;5029907;28;20033;-73
2022/10/27 05:51:40;;;;;;;22.88;12.45;;;;;;;;;;5021202;28;20045;-74
2022/10/27 05:54:06;;;;;;;25.35;12.13;;;;;;;;;;5024948;28;20044;-75
2022/10/27 05:56:34;;;;;;;21.13;11.45;;;;;;;;;;5020029;28;20451;-74
2022/10/27 05:59:00;;;;;;;25.30;10.57;;;;;;;;;;5028136;28;20029;-74
2022/10/27 06:01:26;;;;;;;23.17;12.32;;;;;;;;;;5031436;28;20026;-73
2022/10/27 06:03:52;;;;;;;20.67;12.18;;;;;;;;;;5026013;28;20040;-75
2022/10/27 06:06:18;;;;;;;21.23;11.35;;;;;;;;;;5029481;28;20033;-73
2022/10/27 06:08:44;;;;;;;18.73;11.43;;;;;;;;;;5028950;28;20038;-75
2022/10/27 06:11:10;;;;;;;15.38;11.10;;;;;;;;;;5028203;28;20042;-74
2022/10/27 06:13:36;;;;;;;24.80;11.90;;;;;;;;;;5037450;28;20365;-72
2022/10/27 06:16:02;;;;;;;21.33;11.30;;;;;;;;;;5031463;28;20549;-73
2022/10/27 06:18:28;;;;;;;26.13;13.65;;;;;;;;;;5028155;28;20041;-75
2022/10/27 06:20:55;;;;;;;52.55;31.13;;;;;;;;;;5030259;28;20026;-73
2022/10/27 06:23:21;;;;;;;27.42;14.50;;;;;;;;;;5028124;28;20029;-72
2022/10/27 06:25:47;;;;;;;24.08;12.13;;;;;;;;;;5023277;28;20029;-71
2022/10/27 06:28:13;;;;;;;25.52;12.48;;;;;;;;;;5027473;28;20036;-71
2022/10/27 06:30:39;;;;;;;20.50;11.70;;;;;;;;;;5032056;28;20372;-72
2022/10/27 06:33:05;;;;;;;21.05;12.23;;;;;;;;;;5024082;28;20022;-73
2022/10/27 06:35:31;;;;;;;22.75;11.93;;;;;;;;;;5024688;28;20116;-72
2022/10/27 06:37:57;;;;;;;19.92;11.95;;;;;;;;;;5029427;28;20036;-72
2022/10/27 06:40:23;;;;;;;20.00;11.73;;;;;;;;;;5026760;28;20029;-72
2022/10/27 06:42:49;;;;;;;16.83;11.25;;;;;;;;;;5008637;28;20025;-75
2022/10/27 06:45:17;;;;;;;25.95;12.05;;;;;;;;;;5027572;28;20017;-77
2022/10/27 06:47:43;;;;;;;18.63;13.23;;;;;;;;;;5029511;28;20033;-74
2022/10/27 06:50:12;;;;;;;16.75;10.05;;;;;;;;;;5022215;28;20038;-73
2022/10/27 06:52:38;;;;;;;18.50;11.95;;;;;;;;;;5029779;28;20048;-79
2022/10/27 06:55:05;;;;;;;21.63;12.65;;;;;;;;;;5029321;28;20044;-71
2022/10/27 06:57:38;;;;;;;24.20;13.13;;;;;;;;;;5024788;28;20049;-75
2022/10/27 07:00:04;;;;;;;18.02;12.98;;;;;;;;;;5026462;28;20678;-73
2022/10/27 07:02:30;;;;;;;19.20;11.85;;;;;;;;;;5031716;28;20630;-70
2022/10/27 07:05:00;;;;;;;26.70;13.10;;;;;;;;;;5023288;28;20048;-72
2022/10/27 07:07:26;;;;;;;23.27;12.63;;;;;;;;;;5021308;28;20037;-75
2022/10/27 07:09:52;;;;;;;25.55;13.25;;;;;;;;;;5024721;28;20038;-71
2022/10/27 07:12:18;;;;;;;21.85;11.90;;;;;;;;;;5032037;28;20056;-70
2022/10/27 07:14:44;;;;;;;20.40;10.85;;;;;;;;;;5030188;28;20042;-71
2022/10/27 07:17:10;;;;;;;25.73;12.50;;;;;;;;;;5027554;28;20064;-71
2022/10/27 07:19:36;;;;;;;21.92;12.07;;;;;;;;;;5033337;28;20060;-71
2022/10/27 07:22:02;;;;;;;26.08;11.30;;;;;;;;;;5033582;28;20354;-72
2022/10/27 07:24:28;;;;;;;18.38;10.93;;;;;;;;;;5033891;28;20042;-72
2022/10/27 07:26:54;;;;;;;21.75;10.95;;;;;;;;;;5023203;28;20041;-72
2022/10/27 07:29:20;;;;;;;20.50;11.40;;;;;;;;;;5033463;28;20390;-71
2022/10/27 07:31:46;;;;;;;19.92;10.98;;;;;;;;;;5022957;28;20030;-71
2022/10/27 07:34:13;;;;;;;18.73;10.00;;;;;;;;;;5030935;28;20026;-70
2022/10/27 07:36:39;;;;;;;19.60;9.18;;;;;;;;;;5033436;28;20195;-71
2022/10/27 07:39:05;;;;;;;17.10;8.95;;;;;;;;;;5040656;28;20117;-71
2022/10/27 07:41:31;;;;;;;17.45;7.85;;;;;;;;;;5032482;28;20478;-72
2022/10/27 07:43:57;;;;;;;13.43;7.95;;;;;;;;;;5033059;28;20084;-70
2022/10/27 07:46:24;;;;;;;15.23;8.10;;;;;;;;;;5022390;28;20037;-70
2022/10/27 07:48:50;;;;;;;17.70;7.40;;;;;;;;;;5010468;28;20092;-70
2022/10/27 07:51:16;;;;;;;17.55;7.68;;;;;;;;;;5030930;28;20026;-71
2022/10/27 07:53:42;;;;;;;10.65;7.95;;;;;;;;;;5023651;28;20130;-71
2022/10/27 07:56:08;;;;;;;10.23;6.55;;;;;;;;;;5039487;28;20048;-70
2022/10/27 07:58:34;;;;;;;12.90;7.00;;;;;;;;;;5016545;28;20435;-71
2022/10/27 08:01:02;;;;;;;11.90;6.70;;;;;;;;;;5013385;28;20561;-75
2022/10/27 08:03:30;;;;;;;18.33;6.70;;;;;;;;;;5031948;28;20112;-71
2022/10/27 08:05:59;;;;;;;10.77;5.70;;;;;;;;;;5022408;28;20340;-76
2022/10/27 08:08:25;;;;;;;9.90;6.70;;;;;;;;;;5027514;28;20022;-71
2022/10/27 08:10:51;;;;;;;12.32;6.72;;;;;;;;;;5026804;28;20025;-70
2022/10/27 08:13:17;;;;;;;9.52;5.93;;;;;;;;;;5031553;28;20025;-70
2022/10/27 08:15:43;;;;;;;13.63;6.82;;;;;;;;;;5032435;28;20083;-70
2022/10/27 08:18:10;;;;;;;16.13;6.82;;;;;;;;;;5032127;28;20422;-74
2022/10/27 08:20:37;;;;;;;13.02;6.03;;;;;;;;;;5026853;28;20060;-71
2022/10/27 08:23:05;;;;;;;10.93;6.05;;;;;;;;;;5031408;28;20033;-76
2022/10/27 08:25:32;;;;;;;11.93;6.00;;;;;;;;;;5026028;28;20101;-71
2022/10/27 08:27:58;;;;;;;11.23;6.82;;;;;;;;;;5031212;28;20029;-76
2022/10/27 08:30:26;;;;;;;12.23;6.72;;;;;;;;;;5007075;28;20046;-71
2022/10/27 08:32:56;;;;;;;10.15;6.10;;;;;;;;;;5015479;28;20021;-73
2022/10/27 08:35:22;;;;;;;12.25;5.32;;;;;;;;;;5026747;28;20114;-71
2022/10/27 08:37:48;;;;;;;7.72;4.88;;;;;;;;;;5043134;28;20076;-70
2022/10/27 08:40:14;;;;;;;11.43;5.90;;;;;;;;;;5035470;28;20053;-71
2022/10/27 08:42:52;;;;;;;11.07;5.50;;;;;;;;;;5008607;28;20034;-77
2022/10/27 08:45:33;;;;;;;9.77;4.70;;;;;;;;;;5028580;28;20029;-71
2022/10/27 08:47:59;;;;;;;10.60;4.70;;;;;;;;;;5030585;28;20548;-71
2022/10/27 08:50:34;;;;;;;8.18;4.30;;;;;;;;;;5024991;28;20118;-72
2022/10/27 08:53:05;;;;;;;7.70;4.57;;;;;;;;;;5027928;28;20026;-71
2022/10/27 08:55:35;;;;;;;11.07;4.55;;;;;;;;;;5032700;28;20045;-70
2022/10/27 08:58:07;;;;;;;16.35;4.88;;;;;;;;;;5029667;28;20030;-70
2022/10/27 09:00:40;;;;;;;13.25;4.63;;;;;;;;;;5029233;28;20044;-71
2022/10/27 09:03:15;;;;;;;8.95;4.00;;;;;;;;;;5027476;28;20079;-74
2022/10/27 09:05:49;;;;;;;7.35;3.88;;;;;;;;;;5031582;28;20041;-71
2022/10/27 09:08:17;;;;;;;9.90;4.20;;;;;;;;;;5025341;28;20116;-71
2022/10/27 09:10:52;;;;;;;10.85;4.47;;;;;;;;;;5029972;28;20033;-70
2022/10/27 09:13:41;;;;;;;12.25;4.65;;;;;;;;;;5030014;28;20026;-72
2022/10/27 09:16:11;;;;;;;12.23;4.57;;;;;;;;;;5030338;28;20053;-70
2022/10/27 09:18:40;;;;;;;7.25;3.88;;;;;;;;;;5027691;28;20056;-75
2022/10/27 09:21:19;;;;;;;7.68;4.25;;;;;;;;;;5028458;28;20394;-70
2022/10/27 09:23:53;;;;;;;9.55;4.00;;;;;;;;;;5029091;28;20477;-70
2022/10/27 09:26:23;;;;;;;12.50;4.05;;;;;;;;;;5021525;28;20039;-74
2022/10/27 09:28:53;;;;;;;11.63;4.18;;;;;;;;;;4996731;28;20026;-71
2022/10/27 09:31:38;;;;;;;9.60;3.90;;;;;;;;;;5025143;28;20021;-72
2022/10/27 09:34:09;;;;;;;10.32;4.45;;;;;;;;;;5029895;28;20033;-72
2022/10/27 09:36:35;;;;;;;9.98;4.00;;;;;;;;;;5027870;28;20504;-73
2022/10/27 09:39:01;;;;;;;10.23;3.80;;;;;;;;;;5037257;28;20148;-70
2022/10/27 09:41:27;;;;;;;13.48;4.00;;;;;;;;;;5022825;28;20445;-70
2022/10/27 09:43:54;;;;;;;9.20;3.95;;;;;;;;;;5030534;28;20057;-70
2022/10/27 09:46:24;;;;;;;11.38;3.85;;;;;;;;;;5008840;28;20040;-70
2022/10/27 09:49:03;;;;;;;12.88;3.95;;;;;;;;;;5029632;28;20083;-70
2022/10/27 09:51:42;;;;;;;8.57;4.13;;;;;;;;;;5025011;28;20029;-71
2022/10/27 09:54:27;;;;;;;13.52;4.63;;;;;;;;;;5030474;28;20025;-70
2022/10/27 09:56:53;;;;;;;9.45;4.45;;;;;;;;;;5020929;28;20128;-71
2022/10/27 09:59:23;;;;;;;8.13;3.50;;;;;;;;;;5028418;28;20044;-70
2022/10/27 10:01:55;;;;;;;8.20;3.22;;;;;;;;;;5023751;28;20033;-70
2022/10/27 10:04:22;;;;;;;10.05;4.10;;;;;;;;;;5029533;28;20147;-75
2022/10/27 10:06:55;;;;;;;8.48;3.50;;;;;;;;;;5027120;28;20477;-70
2022/10/27 10:09:23;;;;;;;11.23;3.50;;;;;;;;;;5027157;28;20041;-72
2022/10/27 10:11:49;;;;;;;13.18;3.90;;;;;;;;;;5020105;28;20037;-72
2022/10/27 10:14:23;;;;;;;13.55;3.08;;;;;;;;;;5007062;28;20348;-70
2022/10/27 10:16:49;;;;;;;9.73;3.17;;;;;;;;;;5026544;28;20072;-71
2022/10/27 10:19:17;;;;;;;6.85;2.60;;;;;;;;;;5021349;28;20048;-70
2022/10/27 10:21:55;;;;;;;8.27;2.72;;;;;;;;;;5029606;28;20029;-70
2022/10/27 10:24:23;;;;;;;9.38;3.50;;;;;;;;;;5006865;28;20041;-71
2022/10/27 10:26:51;;;;;;;4.65;2.28;;;;;;;;;;5029740;28;20037;-71
2022/10/27 10:29:26;;;;;;;7.32;3.00;;;;;;;;;;5030274;28;20104;-70
2022/10/27 10:32:12;;;;;;;7.65;2.42;;;;;;;;;;5023071;28;20351;-71
2022/10/27 10:34:39;;;;;;;8.80;2.28;;;;;;;;;;5029022;28;20398;-71
2022/10/27 10:37:25;;;;;;;12.23;3.17;;;;;;;;;;5026412;28;20032;-72
2022/10/27 10:39:51;;;;;;;8.35;3.00;;;;;;;;;;5018523;28;20128;-72
2022/10/27 10:42:17;;;;;;;7.20;3.15;;;;;;;;;;5028187;28;20175;-70
2022/10/27 10:44:43;;;;;;;9.60;3.10;;;;;;;;;;5028090;28;20087;-71
2022/10/27 10:47:29;;;;;;;5.68;2.60;;;;;;;;;;5044117;28;20033;-72
2022/10/27 10:49:57;;;;;;;7.65;2.40;;;;;;;;;;5028817;28;20056;-71
2022/10/27 10:52:24;;;;;;;7.07;2.47;;;;;;;;;;5024166;28;20374;-72
2022/10/27 10:54:50;;;;;;;7.65;2.40;;;;;;;;;;5033010;28;20026;-72
2022/10/27 10:57:29;;;;;;;4.68;2.33;;;;;;;;;;5021655;28;20482;-71
2022/10/27 10:59:56;;;;;;;11.35;2.53;;;;;;;;;;5029456;28;20042;-74
2022/10/27 11:02:32;;;;;;;7.80;2.00;;;;;;;;;;5031556;28;20022;-77
2022/10/27 11:05:10;;;;;;;7.28;2.47;;;;;;;;;;5027357;28;20060;-71
2022/10/27 11:07:36;;;;;;;8.43;1.80;;;;;;;;;;5028871;28;20033;-71
2022/10/27 11:10:20;;;;;;;5.80;1.80;;;;;;;;;;5028693;28;20034;-71
2022/10/27 11:12:51;;;;;;;5.53;1.80;;;;;;;;;;5028605;28;20436;-72
2022/10/27 11:15:20;;;;;;;6.55;2.22;;;;;;;;;;5034389;28;20057;-72
2022/10/27 11:17:47;;;;;;;5.65;1.77;;;;;;;;;;5024930;28;20136;-73
2022/10/27 11:20:19;;;;;;;5.43;1.50;;;;;;;;;;5028787;28;20033;-78
2022/10/27 11:22:46;;;;;;;5.88;1.83;;;;;;;;;;5027102;28;20071;-72
2022/10/27 11:25:16;;;;;;;3.92;1.38;;;;;;;;;;5027560;28;20032;-71
2022/10/27 11:27:48;;;;;;;6.03;2.40;;;;;;;;;;5039967;28;20424;-72
2022/10/27 11:30:26;;;;;;;6.35;1.90;;;;;;;;;;5031958;28;20117;-76
2022/10/27 11:33:06;;;;;;;3.95;1.75;;;;;;;;;;5029869;28;20108;-71
2022/10/27 11:35:48;;;;;;;2.40;1.42;;;;;;;;;;5016370;28;20033;-71
2022/10/27 11:38:18;;;;;;;5.68;1.55;;;;;;;;;;5042264;28;20038;-72
2022/10/27 11:41:02;;;;;;;11.38;2.85;;;;;;;;;;5028703;28;20630;-71
2022/10/27 11:43:31;;;;;;;3.88;1.67;;;;;;;;;;5029218;28;20025;-73
2022/10/27 11:46:05;;;;;;;4.65;2.20;;;;;;;;;;5029933;28;20032;-70
2022/10/27 11:48:37;;;;;;;9.63;1.52;;;;;;;;;;5031106;28;20030;-70
2022/10/27 11:51:08;;;;;;;4.95;1.35;;;;;;;;;;5032544;28;20040;-72
2022/10/27 11:53:34;;;;;;;6.83;1.30;;;;;;;;;;5031150;28;20083;-71
2022/10/27 11:56:03;;;;;;;2.88;1.17;;;;;;;;;;5033082;28;20057;-71
2022/10/27 11:58:50;;;;;;;7.22;1.48;;;;;;;;;;5031190;28;20044;-71
2022/10/27 12:01:29;;;;;;;7.20;1.20;;;;;;;;;;5007516;28;20059;-71
2022/10/27 12:04:00;;;;;;;2.75;1.30;;;;;;;;;;5024423;28;20033;-70
2022/10/27 12:06:28;;;;;;;5.95;1.58;;;;;;;;;;5033393;28;20047;-74
2022/10/27 12:08:57;;;;;;;4.25;1.50;;;;;;;;;;5025060;28;20056;-70
2022/10/27 12:11:32;;;;;;;6.07;2.13;;;;;;;;;;5041503;28;20029;-72
2022/10/27 12:14:21;;;;;;;2.85;1.33;;;;;;;;;;5033633;28;20522;-70
2022/10/27 12:16:51;;;;;;;2.78;1.23;;;;;;;;;;5027988;28;20053;-70
2022/10/27 12:19:19;;;;;;;4.93;1.25;;;;;;;;;;5030753;28;20037;-73
2022/10/27 12:21:51;;;;;;;3.10;1.30;;;;;;;;;;5036991;28;20029;-70
2022/10/27 12:24:17;;;;;;;;;;;;;;;;;;5031201;28;20105;-76
2022/10/27 12:26:49;;;;;;;5.57;1.30;;;;;;;;;;5026543;28;19909;-70
2022/10/27 12:29:16;;;;;;;3.58;1.00;;;;;;;;;;5043234;28;20131;-70
2022/10/27 12:31:46;;;;;;;4.85;1.05;;;;;;;;;;5025501;28;20041;-77
2022/10/27 12:34:14;;;;;;;5.53;1.50;;;;;;;;;;5025735;28;20033;-70
2022/10/27 12:36:44;;;;;;;2.00;0.88;;;;;;;;;;5040841;28;20066;-74
2022/10/27 12:39:18;;;;;;;3.95;0.80;;;;;;;;;;5040681;28;20025;-70
2022/10/27 12:41:53;;;;;;;5.57;1.10;;;;;;;;;;5030351;28;20104;-71
2022/10/27 12:44:31;;;;;;;2.67;1.13;;;;;;;;;;5029265;28;20032;-70
2022/10/27 12:47:00;;;;;;;4.10;1.33;;;;;;;;;;5039833;28;20057;-70
2022/10/27 12:49:29;;;;;;;3.03;1.23;;;;;;;;;;5030023;28;20052;-69
2022/10/27 12:52:06;;;;;;;3.83;1.48;;;;;;;;;;5023979;28;20032;-70
2022/10/27 12:54:52;;;;;;;2.72;0.93;;;;;;;;;;5029716;28;20025;-71
2022/10/27 12:57:21;;;;;;;6.63;1.33;;;;;;;;;;5020775;28;20259;-70
2022/10/27 12:59:59;;;;;;;3.42;1.10;;;;;;;;;;5031509;28;20068;-70
2022/10/27 13:02:27;;;;;;;4.35;1.75;;;;;;;;;;5014503;28;20034;-71
2022/10/27 13:05:12;;;;;;;2.10;0.90;;;;;;;;;;5017700;28;20025;-71
2022/10/27 13:07:41;;;;;;;3.42;1.20;;;;;;;;;;5032085;28;20026;-70
2022/10/27 13:10:25;;;;;;;7.53;1.10;;;;;;;;;;5025491;28;20029;-69
2022/10/27 13:12:54;;;;;;;4.00;1.27;;;;;;;;;;5012133;28;20033;-70
2022/10/27 13:15:29;;;;;;;2.30;0.82;;;;;;;;;;5025066;28;20431;-72
2022/10/27 13:17:55;;;;;;;3.60;1.17;;;;;;;;;;5028690;28;20041;-71
2022/10/27 13:20:34;;;;;;;8.60;1.08;;;;;;;;;;5030130;28;20036;-72
2022/10/27 13:23:02;;;;;;;6.80;1.38;;;;;;;;;;5010737;28;20029;-73
2022/10/27 13:25:38;;;;;;;5.68;1.50;;;;;;;;;;5030260;28;20108;-70
2022/10/27 13:28:10;;;;;;;5.78;1.08;;;;;;;;;;5028333;28;20040;-70
2022/10/27 13:30:39;;;;;;;2.88;1.05;;;;;;;;;;5031898;28;20466;-73
2022/10/27 13:33:25;;;;;;;2.90;1.00;;;;;;;;;;5023987;28;20033;-72
2022/10/27 13:36:11;;;;;;;8.88;2.13;;;;;;;;;;5031749;28;20099;-73
2022/10/27 13:38:37;;;;;;;4.93;2.03;;;;;;;;;;5029063;28;20553;-70
2022/10/27 13:41:03;;;;;;;6.55;1.20;;;;;;;;;;5028604;28;20025;-70
2022/10/27 13:43:31;;;;;;;6.80;3.25;;;;;;;;;;5030622;28;20055;-73
2022/10/27 13:45:57;;;;;;;8.40;2.20;;;;;;;;;;5019850;28;20021;-70
2022/10/27 13:48:23;;;;;;;6.00;1.73;;;;;;;;;;5029924;28;20462;-71
2022/10/27 13:50:49;;;;;;;7.50;1.38;;;;;;;;;;5028044;28;20068;-70
2022/10/27 13:53:15;;;;;;;3.53;1.45;;;;;;;;;;5048321;28;20029;-72
2022/10/27 13:55:41;;;;;;;10.88;1.77;;;;;;;;;;5048852;28;20552;-71
2022/10/27 13:58:25;;;;;;;5.55;1.60;;;;;;;;;;5025605;28;20428;-70
2022/10/27 14:00:54;;;;;;;4.78;1.50;;;;;;;;;;5021445;28;20094;-72
2022/10/27 14:03:33;;;;;;;4.20;1.50;;;;;;;;;;5030000;28;20026;-71
2022/10/27 14:05:59;;;;;;;3.75;1.70;;;;;;;;;;5029380;28;20032;-71
2022/10/27 14:08:30;;;;;;;2.85;1.45;;;;;;;;;;5017353;28;20037;-74
2022/10/27 14:10:59;;;;;;;6.65;1.80;;;;;;;;;;5027925;28;20422;-70
2022/10/27 14:13:25;;;;;;;7.90;1.70;;;;;;;;;;5028633;28;20132;-77
2022/10/27 14:15:59;;;;;;;4.40;1.38;;;;;;;;;;5031158;28;20367;-70
2022/10/27 14:18:25;;;;;;;4.88;2.20;;;;;;;;;;5049549;28;20533;-70
2022/10/27 14:20:53;;;;;;;11.55;3.88;;;;;;;;;;5029412;28;20172;-70
2022/10/27 14:23:19;;;;;;;4.38;2.17;;;;;;;;;;5018901;28;20021;-70
2022/10/27 14:25:45;;;;;;;6.35;2.20;;;;;;;;;;5019174;28;20041;-73
2022/10/27 14:28:19;;;;;;;2.47;1.33;;;;;;;;;;5038073;28;20385;-72
2022/10/27 14:30:46;;;;;;;11.85;2.40;;;;;;;;;;5029508;28;20033;-70
2022/10/27 14:33:30;;;;;;;5.07;1.05;;;;;;;;;;5029973;28;20033;-72
2022/10/27 14:36:14;;;;;;;2.92;1.35;;;;;;;;;;5018324;28;20087;-70
2022/10/27 14:38:48;;;;;;;4.53;1.40;;;;;;;;;;5028832;28;20315;-70
2022/10/27 14:41:16;;;;;;;7.93;1.25;;;;;;;;;;5024185;28;20036;-70
2022/10/27 14:43:43;;;;;;;6.25;1.23;;;;;;;;;;5027891;28;20040;-70